Time;durP1;ratioP1;P1;durP2;ratioP2;P2;SDS_P1;SDS_P2;PMS_P1;PMS_P2;Temp;Humidity;BMP_temperature;BMP_pressure;BME280_temperature;BME280_humidity;BME280_pressure;Samples;Min_cycle;Max_cycle;Signal;HPM_P1;HPM_P2
2023/01/26 00:01:19;;;;;;;19.77;6.37;;;;;;;1.80;100.00;96699.81;5037376;28;20888;-68
2023/01/26 00:03:46;;;;;;;21.13;6.20;;;;;;;1.67;100.00;96705.09;5037578;28;20207;-68
2023/01/26 00:06:14;;;;;;;23.23;6.07;;;;;;;1.62;100.00;96701.16;5036881;28;20201;-68
2023/01/26 00:08:43;;;;;;;19.07;5.43;;;;;;;1.77;100.00;96692.22;5036928;28;20230;-68
2023/01/26 00:11:12;;;;;;;19.37;6.43;;;;;;;1.78;100.00;96701.69;5036884;28;20204;-68
2023/01/26 00:13:38;;;;;;;24.70;6.83;;;;;;;1.64;100.00;96697.50;5035929;28;20211;-67
2023/01/26 00:16:10;;;;;;;18.67;6.90;;;;;;;1.74;100.00;96695.88;5036647;28;20208;-67
2023/01/26 00:18:38;;;;;;;16.50;5.67;;;;;;;1.78;100.00;96705.09;5036529;28;20728;-68
2023/01/26 00:21:05;;;;;;;13.33;4.97;;;;;;;1.77;100.00;96702.63;5036124;28;20212;-68
2023/01/26 00:23:33;;;;;;;15.73;5.67;;;;;;;1.86;100.00;96695.81;5037031;28;20206;-68
2023/01/26 00:25:59;;;;;;;20.33;6.67;;;;;;;1.86;100.00;96695.00;5036389;28;20197;-68
2023/01/26 00:28:27;;;;;;;13.63;4.70;;;;;;;1.85;100.00;96699.34;5035970;28;20218;-68
2023/01/26 00:30:53;;;;;;;17.30;5.77;;;;;;;1.82;100.00;96690.97;5036006;28;20208;-68
2023/01/26 00:33:21;;;;;;;20.97;7.10;;;;;;;1.75;100.00;96689.75;5037892;28;20206;-68
2023/01/26 00:35:54;;;;;;;15.93;5.13;;;;;;;1.75;100.00;96687.16;5035546;28;20863;-68
2023/01/26 00:38:21;;;;;;;17.97;5.03;;;;;;;1.71;100.00;96696.13;5036446;28;20248;-68
2023/01/26 00:40:47;;;;;;;12.83;4.93;;;;;;;1.57;100.00;96680.72;5036566;28;21319;-68
2023/01/26 00:43:14;;;;;;;15.60;5.57;;;;;;;1.28;100.00;96682.00;5036430;28;20201;-68
2023/01/26 00:45:40;;;;;;;14.17;5.23;;;;;;;1.43;100.00;96680.88;5035963;28;20229;-68
2023/01/26 00:48:07;;;;;;;15.33;5.63;;;;;;;1.48;100.00;96676.19;5036313;28;20208;-68
2023/01/26 00:50:35;;;;;;;21.87;6.47;;;;;;;1.47;100.00;96677.13;5036297;28;20240;-68
2023/01/26 00:53:01;;;;;;;16.67;5.13;;;;;;;1.38;100.00;96672.59;5036200;28;20566;-68
2023/01/26 00:55:31;;;;;;;15.87;5.93;;;;;;;1.44;100.00;96673.91;5035819;28;20217;-68
2023/01/26 00:57:57;;;;;;;20.83;5.67;;;;;;;1.39;100.00;96669.06;5036296;28;20201;-68
2023/01/26 01:00:24;;;;;;;15.77;5.67;;;;;;;1.39;100.00;96670.84;5036245;28;20194;-68
2023/01/26 01:02:50;;;;;;;16.40;5.73;;;;;;;1.33;100.00;96669.50;5036242;28;20666;-68
2023/01/26 01:05:17;;;;;;;20.33;5.73;;;;;;;1.35;100.00;96672.84;5035878;28;20225;-68
2023/01/26 01:07:45;;;;;;;22.43;5.47;;;;;;;1.48;100.00;96668.41;5036080;28;20204;-68
2023/01/26 01:10:11;;;;;;;18.77;6.50;;;;;;;1.35;100.00;96672.00;5035536;28;20225;-68
2023/01/26 01:12:38;;;;;;;20.03;5.70;;;;;;;1.47;100.00;96661.56;5036602;28;20201;-68
2023/01/26 01:15:05;;;;;;;19.17;5.87;;;;;;;1.62;100.00;96652.66;5035109;28;20201;-68
2023/01/26 01:17:32;;;;;;;14.67;5.77;;;;;;;1.62;100.00;96649.22;5036012;28;20201;-68
2023/01/26 01:19:58;;;;;;;17.03;5.73;;;;;;;1.64;100.00;96655.94;5035880;28;20217;-68
2023/01/26 01:22:25;;;;;;;12.90;4.97;;;;;;;1.63;100.00;96656.91;5036338;28;20201;-68
2023/01/26 01:24:52;;;;;;;18.10;5.33;;;;;;;1.75;100.00;96650.78;5035456;28;20213;-68
2023/01/26 01:27:19;;;;;;;18.23;6.87;;;;;;;1.51;100.00;96646.59;5035950;28;20201;-68
2023/01/26 01:29:45;;;;;;;18.40;5.47;;;;;;;1.56;100.00;96642.69;5035986;28;20605;-68
2023/01/26 01:32:12;;;;;;;18.53;5.23;;;;;;;1.30;100.00;96633.41;5035996;28;20212;-68
2023/01/26 01:34:38;;;;;;;16.50;5.73;;;;;;;1.42;100.00;96635.09;5035425;28;20201;-68
2023/01/26 01:37:05;;;;;;;15.13;5.07;;;;;;;1.41;100.00;96636.06;5036192;28;20212;-67
2023/01/26 01:39:31;;;;;;;13.63;4.57;;;;;;;1.46;100.00;96633.91;5035702;28;20225;-68
2023/01/26 01:41:59;;;;;;;13.90;5.33;;;;;;;1.43;100.00;96628.97;5038692;28;20604;-68
2023/01/26 01:44:26;;;;;;;15.50;4.90;;;;;;;1.28;100.00;96631.84;5039683;28;20292;-67
2023/01/26 01:46:57;;;;;;;15.70;5.33;;;;;;;1.49;100.00;96622.47;5039329;28;20205;-67
2023/01/26 01:49:27;;;;;;;18.17;5.57;;;;;;;1.49;100.00;96622.47;5039092;28;20680;-67
2023/01/26 01:51:58;;;;;;;13.10;4.73;;;;;;;1.46;100.00;96618.34;5040262;28;20224;-67
2023/01/26 01:54:30;;;;;;;18.53;6.00;;;;;;;1.40;100.00;96615.38;5038597;28;21048;-68
2023/01/26 01:57:02;;;;;;;16.90;5.60;;;;;;;1.22;100.00;96619.31;5038930;28;20252;-67
2023/01/26 01:59:31;;;;;;;15.13;4.77;;;;;;;1.33;100.00;96601.19;5039258;28;20224;-68
2023/01/26 02:01:57;;;;;;;14.50;4.63;;;;;;;1.27;100.00;96597.31;5038735;28;20999;-68
2023/01/26 02:04:26;;;;;;;15.40;5.10;;;;;;;1.32;100.00;96597.78;5038689;28;20209;-67
2023/01/26 02:06:55;;;;;;;19.20;5.30;;;;;;;1.41;100.00;96596.25;5039292;28;21088;-68
2023/01/26 02:12:18;;;;;;;16.63;5.07;;;;;;;1.44;100.00;96588.25;5038871;28;20239;-68
2023/01/26 02:14:44;;;;;;;23.67;6.13;;;;;;;1.32;100.00;96583.97;5038007;28;20202;-67
2023/01/26 02:17:11;;;;;;;16.43;4.20;;;;;;;1.44;100.00;96585.66;5038957;28;20197;-68
2023/01/26 02:19:47;;;;;;;15.23;4.73;;;;;;;1.53;100.00;96572.81;5038769;28;20231;-68
2023/01/26 02:22:25;;;;;;;19.87;5.17;;;;;;;1.58;100.00;96583.69;5038820;28;20205;-68
2023/01/26 02:24:56;;;;;;;13.07;4.73;;;;;;;1.59;100.00;96572.38;5038360;28;20205;-68
2023/01/26 02:27:24;;;;;;;13.03;4.60;;;;;;;1.53;100.00;96583.22;5039181;28;20202;-68
2023/01/26 02:29:51;;;;;;;18.90;5.20;;;;;;;1.53;100.00;96578.03;5038396;28;20620;-68
2023/01/26 02:32:18;;;;;;;15.07;4.70;;;;;;;1.58;100.00;96575.06;5038760;28;20201;-68
2023/01/26 02:34:44;;;;;;;19.33;4.73;;;;;;;1.62;100.00;96577.31;5038000;28;20209;-68
2023/01/26 02:37:14;;;;;;;16.33;4.80;;;;;;;1.63;100.00;96572.94;5038363;28;21084;-68
2023/01/26 02:39:47;;;;;;;16.83;5.30;;;;;;;1.74;100.00;96573.78;5038997;28;20324;-68
2023/01/26 02:44:59;;;;;;;15.93;5.23;;;;;;;1.66;100.00;96572.75;5037939;28;20212;-68
2023/01/26 02:47:25;;;;;;;19.60;5.30;;;;;;;1.67;100.00;96569.16;5038214;28;20235;-68
2023/01/26 02:49:51;;;;;;;15.83;5.03;;;;;;;1.69;100.00;96570.72;5038228;28;20240;-68
2023/01/26 02:52:19;;;;;;;12.67;4.37;;;;;;;1.71;100.00;96563.66;5037204;28;20644;-68
2023/01/26 02:57:30;;;;;;;14.27;5.33;;;;;;;1.74;100.00;96566.00;5038273;28;20330;-68
2023/01/26 02:59:58;;;;;;;14.13;4.77;;;;;;;1.54;100.00;96563.25;5037796;28;20233;-67
2023/01/26 03:02:25;;;;;;;9.73;3.67;;;;;;;1.53;100.00;96557.25;5035792;28;20205;-68
2023/01/26 03:04:51;;;;;;;16.07;5.50;;;;;;;1.46;100.00;96548.25;5037474;28;20209;-68
2023/01/26 03:07:18;;;;;;;13.20;5.17;;;;;;;1.44;100.00;96551.91;5037698;28;20197;-68
2023/01/26 03:09:45;;;;;;;17.17;4.97;;;;;;;1.50;100.00;96547.09;5037538;28;20220;-68
2023/01/26 03:12:11;;;;;;;17.20;5.63;;;;;;;1.60;100.00;96547.22;5038056;28;20209;-67
2023/01/26 03:14:38;;;;;;;16.63;4.63;;;;;;;1.70;100.00;96541.22;5036735;28;20577;-68
2023/01/26 03:17:06;;;;;;;14.20;4.33;;;;;;;1.84;100.00;96541.81;5037394;28;20212;-68
2023/01/26 03:27:46;;;;;;;19.20;5.97;;;;;;;1.86;100.00;96534.72;5037711;28;20221;-68
2023/01/26 03:30:15;;;;;;;18.57;5.60;;;;;;;1.84;100.00;96525.41;5037019;28;20236;-68
2023/01/26 03:32:43;;;;;;;19.63;5.50;;;;;;;1.90;100.00;96530.13;5037586;28;21172;-67
2023/01/26 03:35:13;;;;;;;12.67;4.20;;;;;;;1.47;100.00;96534.31;5037169;28;20219;-68
2023/01/26 03:37:42;;;;;;;16.50;5.53;;;;;;;1.58;100.00;96523.97;5037176;28;20203;-68
2023/01/26 03:56:38;;;;;;;16.87;5.03;;;;;;;1.71;100.00;96518.69;5036902;28;20301;-67
2023/01/26 03:59:13;;;;;;;18.53;5.93;;;;;;;1.76;100.00;96527.75;5035001;28;20224;-68
2023/01/26 04:09:52;;;;;;;19.50;5.03;;;;;;;1.49;100.00;96521.22;5013497;28;20233;-67
2023/01/26 04:12:18;;;;;;;13.50;4.80;;;;;;;1.60;100.00;96522.06;5014543;28;20203;-68
2023/01/26 04:22:58;;;;;;;14.23;5.20;;;;;;;1.47;100.00;96520.53;5036425;28;21482;-68
2023/01/26 04:25:25;;;;;;;10.47;4.17;;;;;;;1.29;100.00;96514.94;5036061;28;20574;-68
2023/01/26 04:27:51;;;;;;;14.73;4.97;;;;;;;1.33;100.00;96513.75;5036724;28;20210;-68
2023/01/26 04:30:19;;;;;;;17.73;5.90;;;;;;;1.22;100.00;96515.50;5036154;28;20225;-68
2023/01/26 04:32:46;;;;;;;19.73;6.53;;;;;;;1.33;100.00;96512.94;5038233;28;20205;-68
2023/01/26 04:35:14;;;;;;;12.80;5.43;;;;;;;1.43;100.00;96508.72;5035824;28;20224;-67
2023/01/26 04:37:40;;;;;;;16.63;6.07;;;;;;;1.34;100.00;96502.44;5036712;28;20295;-67
2023/01/26 04:40:08;;;;;;;14.13;4.57;;;;;;;1.36;100.00;96503.16;5036800;28;20588;-67
2023/01/26 04:42:35;;;;;;;14.57;4.97;;;;;;;1.19;100.00;96510.56;5036359;28;20205;-68
2023/01/26 04:45:01;;;;;;;13.83;4.50;;;;;;;1.22;100.00;96500.78;5035441;28;20208;-67
2023/01/26 04:47:28;;;;;;;20.80;5.17;;;;;;;1.37;100.00;96504.78;5036758;28;20214;-67
2023/01/26 04:49:54;;;;;;;21.60;6.30;;;;;;;1.38;100.00;96498.66;5036525;28;20240;-67
2023/01/26 04:52:22;;;;;;;11.03;3.77;;;;;;;1.53;100.00;96494.94;5036356;28;20214;-68
2023/01/26 04:54:49;;;;;;;18.33;4.83;;;;;;;1.49;100.00;96490.91;5035235;28;20231;-67
2023/01/26 04:57:15;;;;;;;19.50;5.07;;;;;;;1.55;100.00;96487.81;5036399;28;20598;-67
2023/01/26 04:59:42;;;;;;;13.37;4.40;;;;;;;1.59;100.00;96494.47;5036271;28;20235;-68
2023/01/26 05:02:09;;;;;;;13.40;5.37;;;;;;;1.68;100.00;96495.50;5036537;28;20685;-67
2023/01/26 05:04:35;;;;;;;12.73;4.60;;;;;;;1.58;100.00;96492.81;5035844;28;20216;-67
2023/01/26 05:07:02;;;;;;;13.70;4.77;;;;;;;1.64;100.00;96494.91;5035820;28;20704;-68
2023/01/26 05:09:30;;;;;;;11.47;4.27;;;;;;;1.82;100.00;96501.31;5036364;28;20980;-67
2023/01/26 05:12:32;;;;;;;10.50;3.83;;;;;;;1.65;100.00;96503.56;5036472;28;20198;-67
2023/01/26 05:14:43;;;;;;;18.73;5.27;;;;;;;1.57;100.00;96501.53;5034777;28;20288;-68
2023/01/26 05:17:10;;;;;;;11.87;4.57;;;;;;;1.64;100.00;96501.91;5039319;28;20224;-68
2023/01/26 05:19:36;;;;;;;14.47;4.73;;;;;;;1.58;100.00;96498.00;5041297;28;20229;-67
2023/01/26 05:22:02;;;;;;;11.57;4.10;;;;;;;1.53;100.00;96500.13;5039809;28;20201;-67
2023/01/26 05:24:30;;;;;;;13.43;5.50;;;;;;;1.63;100.00;96506.28;5039065;28;20202;-67
2023/01/26 05:29:37;;;;;;;16.37;6.17;;;;;;;1.59;100.00;96504.84;5039946;28;20313;-67
2023/01/26 05:32:04;;;;;;;14.97;5.57;;;;;;;1.51;100.00;96511.56;5039818;28;20194;-67
2023/01/26 05:34:30;;;;;;;13.10;4.00;;;;;;;1.52;100.00;96511.44;5039210;28;20211;-67
2023/01/26 05:36:57;;;;;;;16.37;5.20;;;;;;;1.63;100.00;96511.47;5039917;28;20260;-67
2023/01/26 05:39:23;;;;;;;12.17;3.90;;;;;;;1.48;100.00;96506.63;5039901;28;20222;-67
2023/01/26 05:41:51;;;;;;;13.70;4.90;;;;;;;1.62;100.00;96514.19;5039246;28;20206;-68
2023/01/26 05:44:17;;;;;;;14.43;4.90;;;;;;;1.63;100.00;96515.81;5039337;28;20211;-67
2023/01/26 05:46:44;;;;;;;13.83;5.13;;;;;;;1.64;100.00;96518.28;5039605;28;20213;-68
2023/01/26 05:49:10;;;;;;;15.47;5.17;;;;;;;1.67;100.00;96519.81;5039519;28;20230;-67
2023/01/26 05:51:37;;;;;;;14.50;4.50;;;;;;;1.75;100.00;96514.91;5039408;28;20749;-67
2023/01/26 05:54:03;;;;;;;14.13;4.93;;;;;;;1.77;100.00;96516.44;5038366;28;20694;-67
2023/01/26 05:56:30;;;;;;;11.83;4.13;;;;;;;1.77;100.00;96519.03;5039220;28;20224;-67
2023/01/26 05:58:58;;;;;;;11.47;4.20;;;;;;;1.80;100.00;96519.59;5038885;28;20221;-68
2023/01/26 06:01:24;;;;;;;14.10;4.43;;;;;;;1.64;100.00;96518.28;5039516;28;20193;-68
2023/01/26 06:03:51;;;;;;;15.33;5.27;;;;;;;1.52;100.00;96524.41;5038394;28;20693;-67
2023/01/26 06:06:17;;;;;;;9.57;4.03;;;;;;;1.44;100.00;96521.59;5038849;28;21012;-68
2023/01/26 06:08:44;;;;;;;14.00;4.63;;;;;;;1.47;100.00;96526.53;5039573;28;20249;-67
2023/01/26 06:11:10;;;;;;;13.77;4.77;;;;;;;1.59;100.00;96528.22;5039294;28;20602;-68
2023/01/26 06:13:36;;;;;;;15.00;5.37;;;;;;;1.66;100.00;96526.81;5038073;28;20210;-68
2023/01/26 06:16:05;;;;;;;17.47;4.70;;;;;;;1.71;100.00;96532.47;5038626;28;20246;-67
2023/01/26 06:18:31;;;;;;;11.47;3.90;;;;;;;1.68;100.00;96524.09;5038025;28;20226;-67
2023/01/26 06:20:59;;;;;;;14.47;5.10;;;;;;;1.78;100.00;96520.66;5038953;28;20204;-67
2023/01/26 06:23:26;;;;;;;12.23;3.97;;;;;;;1.80;100.00;96528.38;5039155;28;20257;-68
2023/01/26 06:25:53;;;;;;;16.77;5.17;;;;;;;1.81;100.00;96520.44;5037888;28;21954;-67
2023/01/26 06:28:19;;;;;;;11.97;4.57;;;;;;;1.75;100.00;96525.28;5039022;28;20277;-67
2023/01/26 06:30:46;;;;;;;15.40;5.33;;;;;;;1.80;100.00;96524.00;5038534;28;20330;-67
2023/01/26 06:33:14;;;;;;;13.40;5.17;;;;;;;1.79;100.00;96522.31;5038619;28;20936;-67
2023/01/26 06:35:40;;;;;;;16.70;5.57;;;;;;;1.78;100.00;96519.84;5037978;28;20560;-67
2023/01/26 06:38:07;;;;;;;17.17;4.70;;;;;;;1.76;100.00;96516.53;5037993;28;20667;-67
2023/01/26 06:40:33;;;;;;;16.07;5.20;;;;;;;1.79;100.00;96517.13;5038832;28;21208;-67
2023/01/26 06:43:00;;;;;;;13.20;4.13;;;;;;;1.86;100.00;96524.34;5038590;28;20895;-67
2023/01/26 06:45:26;;;;;;;13.67;4.93;;;;;;;1.70;100.00;96523.03;5037876;28;20566;-67
2023/01/26 06:47:53;;;;;;;21.73;5.87;;;;;;;1.71;100.00;96518.69;5038170;28;20210;-67
2023/01/26 06:50:25;;;;;;;14.33;4.90;;;;;;;1.82;100.00;96517.72;5038342;28;20235;-67
2023/01/26 06:52:54;;;;;;;21.80;5.70;;;;;;;1.91;100.00;96526.59;5037902;28;20589;-67
2023/01/26 06:55:27;;;;;;;15.90;5.57;;;;;;;1.96;100.00;96524.44;5037347;28;20211;-67
2023/01/26 06:57:53;;;;;;;19.53;5.40;;;;;;;1.90;100.00;96519.75;5037987;28;20594;-67
2023/01/26 07:00:21;;;;;;;18.50;5.97;;;;;;;1.96;100.00;96519.25;5038020;28;20312;-67
2023/01/26 07:02:47;;;;;;;16.43;4.67;;;;;;;1.80;100.00;96518.78;5038370;28;20221;-67
2023/01/26 07:05:13;;;;;;;18.83;5.60;;;;;;;1.73;100.00;96515.00;5037641;28;20207;-67
2023/01/26 07:07:41;;;;;;;19.83;5.50;;;;;;;1.66;100.00;96516.41;5037640;28;20563;-67
2023/01/26 07:10:09;;;;;;;20.87;5.10;;;;;;;1.73;100.00;96515.00;5037536;28;20236;-67
2023/01/26 07:12:39;;;;;;;13.27;4.53;;;;;;;1.85;100.00;96511.47;5038058;28;20205;-67
2023/01/26 07:15:07;;;;;;;14.87;4.57;;;;;;;1.70;100.00;96511.81;5036718;28;20211;-67
2023/01/26 07:17:33;;;;;;;11.30;3.60;;;;;;;1.78;100.00;96510.28;5037703;28;20207;-68
2023/01/26 07:19:59;;;;;;;12.80;4.97;;;;;;;1.75;100.00;96505.31;5037644;28;20705;-67
2023/01/26 07:22:26;;;;;;;15.50;5.50;;;;;;;1.64;100.00;96504.50;5037605;28;20583;-67
2023/01/26 07:24:54;;;;;;;10.87;4.23;;;;;;;1.71;100.00;96503.91;5037072;28;20206;-67
2023/01/26 07:27:20;;;;;;;15.77;5.17;;;;;;;1.69;100.00;96504.97;5037880;28;20232;-68
2023/01/26 07:29:47;;;;;;;15.10;5.03;;;;;;;1.63;100.00;96503.69;5037343;28;20238;-67
2023/01/26 07:32:13;;;;;;;14.50;4.60;;;;;;;1.64;100.00;96510.50;5037533;28;20230;-68
2023/01/26 07:34:40;;;;;;;11.90;4.37;;;;;;;1.69;100.00;96510.97;5036840;28;20219;-67
2023/01/26 07:37:06;;;;;;;18.73;5.00;;;;;;;1.48;100.00;96504.81;5037498;28;20232;-67
2023/01/26 07:39:32;;;;;;;18.43;6.43;;;;;;;1.46;100.00;96509.28;5036107;28;20229;-67
2023/01/26 07:42:00;;;;;;;12.53;4.87;;;;;;;1.62;100.00;96509.81;5037282;28;20212;-67
2023/01/26 07:44:27;;;;;;;11.07;4.47;;;;;;;1.61;100.00;96513.34;5035907;28;20215;-67
2023/01/26 07:46:53;;;;;;;12.80;4.40;;;;;;;1.47;100.00;96507.53;5036817;28;20675;-67
2023/01/26 07:49:20;;;;;;;16.30;5.00;;;;;;;1.54;100.00;96509.56;5037740;28;20245;-67
2023/01/26 07:51:46;;;;;;;17.10;5.23;;;;;;;1.62;100.00;96504.63;5036585;28;20232;-68
2023/01/26 07:54:13;;;;;;;14.43;3.67;;;;;;;1.65;100.00;96498.34;5035398;28;20204;-67
2023/01/26 07:56:39;;;;;;;13.90;4.43;;;;;;;1.70;100.00;96497.06;5037455;28;20208;-67
2023/01/26 07:59:07;;;;;;;11.43;3.93;;;;;;;1.66;100.00;96497.41;5037784;28;20222;-67
2023/01/26 08:01:33;;;;;;;10.07;3.50;;;;;;;1.65;100.00;96499.16;5036625;28;20209;-67
2023/01/26 08:04:00;;;;;;;12.80;4.03;;;;;;;1.58;100.00;96503.19;5035944;28;20214;-68
2023/01/26 08:06:26;;;;;;;14.80;4.07;;;;;;;1.67;100.00;96496.44;5035747;28;20217;-67
2023/01/26 08:08:53;;;;;;;12.90;4.10;;;;;;;1.75;100.00;96494.13;5034478;28;20437;-67
2023/01/26 08:11:22;;;;;;;16.77;4.87;;;;;;;1.70;100.00;96493.63;5035814;28;20709;-67
2023/01/26 08:13:48;;;;;;;15.33;5.30;;;;;;;1.82;100.00;96496.94;5035448;28;20711;-67
2023/01/26 08:16:16;;;;;;;17.13;5.23;;;;;;;1.84;100.00;96494.22;5036098;28;20208;-67
2023/01/26 08:18:44;;;;;;;14.17;5.67;;;;;;;1.87;100.00;96507.81;5035632;28;20221;-67
2023/01/26 08:21:12;;;;;;;18.07;5.03;;;;;;;1.91;100.00;96498.03;5036450;28;20199;-67
2023/01/26 08:23:38;;;;;;;13.23;4.47;;;;;;;1.94;100.00;96493.38;5035245;28;20995;-67
2023/01/26 08:26:06;;;;;;;14.83;4.73;;;;;;;1.92;100.00;96494.44;5035884;28;20210;-67
2023/01/26 08:28:34;;;;;;;19.77;5.60;;;;;;;1.86;100.00;96490.56;5036116;28;20230;-67
2023/01/26 08:31:04;;;;;;;19.60;5.57;;;;;;;1.86;100.00;96487.97;5035665;28;20216;-66
2023/01/26 08:33:32;;;;;;;16.70;5.53;;;;;;;1.71;100.00;96488.31;5035245;28;20211;-67
2023/01/26 08:36:01;;;;;;;10.03;3.73;;;;;;;1.64;100.00;96487.13;5034901;28;20206;-67
2023/01/26 08:38:29;;;;;;;15.77;5.57;;;;;;;1.50;100.00;96489.97;5036252;28;20601;-67
2023/01/26 08:40:56;;;;;;;15.87;5.67;;;;;;;1.58;100.00;96486.78;5035776;28;20201;-67
2023/01/26 08:43:22;;;;;;;13.60;5.20;;;;;;;1.67;100.00;96488.66;5036096;28;20198;-67
2023/01/26 08:45:49;;;;;;;13.07;4.83;;;;;;;1.68;100.00;96493.75;5034716;28;20468;-67
2023/01/26 08:48:15;;;;;;;12.20;5.50;;;;;;;1.74;100.00;96497.66;5035916;28;20201;-67
2023/01/26 08:50:43;;;;;;;18.20;5.27;;;;;;;1.81;100.00;96489.28;5036622;28;20659;-67
2023/01/26 08:53:10;;;;;;;13.07;5.07;;;;;;;1.69;100.00;96486.78;5039596;28;20693;-67
2023/01/26 08:55:36;;;;;;;17.07;4.30;;;;;;;1.60;100.00;96487.50;5038793;28;21094;-67
2023/01/26 08:58:03;;;;;;;12.83;5.33;;;;;;;1.63;100.00;96493.28;5040404;28;20217;-67
2023/01/26 09:00:30;;;;;;;12.67;4.27;;;;;;;1.66;100.00;96489.63;5040703;28;20206;-67
2023/01/26 09:03:01;;;;;;;16.60;5.03;;;;;;;1.48;100.00;96494.44;5039940;28;20194;-67
2023/01/26 09:05:28;;;;;;;17.90;5.07;;;;;;;1.30;100.00;96482.84;5039145;28;20216;-67
2023/01/26 09:07:55;;;;;;;17.70;5.53;;;;;;;1.57;100.00;96475.56;5040291;28;20205;-67
2023/01/26 09:10:22;;;;;;;16.07;4.87;;;;;;;1.56;100.00;96473.91;5040791;28;20229;-67
2023/01/26 09:12:48;;;;;;;12.93;4.63;;;;;;;1.71;100.00;96471.94;5040618;28;20236;-67
2023/01/26 09:15:15;;;;;;;15.07;4.47;;;;;;;1.77;100.00;96474.88;5039021;28;20202;-67
2023/01/26 09:17:42;;;;;;;11.57;3.90;;;;;;;1.86;100.00;96480.16;5039768;28;20203;-67
2023/01/26 09:20:09;;;;;;;13.33;4.03;;;;;;;1.81;100.00;96476.28;5040038;28;20222;-67
2023/01/26 09:22:36;;;;;;;11.23;3.90;;;;;;;1.91;100.00;96479.84;5039977;28;20208;-67
2023/01/26 09:25:05;;;;;;;10.63;3.63;;;;;;;1.92;100.00;96481.47;5039184;28;20828;-67
2023/01/26 09:27:31;;;;;;;10.63;3.90;;;;;;;1.85;100.00;96481.13;5040181;28;20586;-67
2023/01/26 09:29:58;;;;;;;10.57;3.70;;;;;;;1.80;100.00;96479.81;5039317;28;20847;-67
2023/01/26 09:32:25;;;;;;;9.37;3.57;;;;;;;1.87;100.00;96483.59;5039927;28;20226;-68
2023/01/26 09:34:51;;;;;;;11.33;3.77;;;;;;;1.87;100.00;96481.00;5038999;28;20216;-67
2023/01/26 09:37:18;;;;;;;12.40;4.07;;;;;;;1.88;100.00;96491.28;5039429;28;20202;-67
2023/01/26 09:39:44;;;;;;;11.80;3.63;;;;;;;2.07;100.00;96483.69;5039564;28;20707;-67
2023/01/26 09:42:29;;;;;;;13.27;3.93;;;;;;;2.10;100.00;96483.47;5039319;28;20292;-67
2023/01/26 09:45:03;;;;;;;10.73;3.27;;;;;;;2.19;100.00;96481.91;5038848;28;20203;-67
2023/01/26 09:47:36;;;;;;;8.67;3.17;;;;;;;2.24;100.00;96477.16;5039724;28;20661;-67
2023/01/26 09:50:06;;;;;;;9.47;3.93;;;;;;;2.27;99.21;96479.53;5039258;28;20236;-68
2023/01/26 09:52:36;;;;;;;10.63;4.47;;;;;;;2.21;99.85;96482.63;5039264;28;20289;-67
2023/01/26 09:55:05;;;;;;;9.87;3.90;;;;;;;2.09;100.00;96491.38;5038218;28;20226;-67
2023/01/26 09:57:37;;;;;;;9.03;3.23;;;;;;;2.14;97.90;96481.44;5039488;28;20229;-67
2023/01/26 10:00:10;;;;;;;10.73;3.57;;;;;;;2.25;99.93;96486.63;5039232;28;20737;-67
2023/01/26 10:02:56;;;;;;;8.67;3.17;;;;;;;2.26;98.84;96490.88;5039145;28;20952;-67
2023/01/26 10:05:32;;;;;;;7.00;2.67;;;;;;;2.19;98.11;96476.69;5038439;28;20210;-67
2023/01/26 10:07:58;;;;;;;7.80;2.00;;;;;;;2.11;98.47;96482.50;5039082;28;20204;-68
2023/01/26 10:10:29;;;;;;;9.83;2.73;;;;;;;2.30;98.10;96480.09;5039577;28;20201;-67
2023/01/26 10:12:58;;;;;;;8.00;3.27;;;;;;;2.35;97.66;96490.97;5037728;28;20725;-67
2023/01/26 10:15:30;;;;;;;9.00;2.60;;;;;;;2.19;97.26;96489.69;5038134;28;20460;-67
2023/01/26 10:18:00;;;;;;;12.17;4.10;;;;;;;2.17;96.97;96483.81;5039019;28;20194;-67
2023/01/26 10:20:31;;;;;;;7.53;2.87;;;;;;;2.24;96.59;96479.78;5038740;28;20224;-67
2023/01/26 10:23:01;;;;;;;10.60;3.47;;;;;;;2.27;97.59;96472.56;5038959;28;20208;-68
2023/01/26 10:25:33;;;;;;;13.47;3.17;;;;;;;2.18;97.23;96485.47;5039320;28;20211;-68
2023/01/26 10:28:05;;;;;;;8.63;3.07;;;;;;;2.25;98.33;96484.03;5038850;28;20208;-67
2023/01/26 10:30:31;;;;;;;14.10;4.07;;;;;;;2.09;98.58;96484.41;5038180;28;20865;-68
2023/01/26 10:32:58;;;;;;;11.10;3.17;;;;;;;2.15;100.00;96483.09;5038915;28;20234;-67
2023/01/26 10:35:25;;;;;;;9.27;3.17;;;;;;;2.21;99.53;96480.84;5037559;28;21125;-68
2023/01/26 10:37:52;;;;;;;9.70;2.77;;;;;;;2.25;99.77;96489.22;5037114;28;20207;-67
2023/01/26 10:40:20;;;;;;;11.07;4.10;;;;;;;2.28;99.66;96481.19;5037467;28;20534;-67
2023/01/26 10:42:56;;;;;;;10.33;4.17;;;;;;;2.05;99.24;96484.75;5038670;28;20258;-68
2023/01/26 10:45:30;;;;;;;7.67;2.90;;;;;;;1.87;100.00;96476.63;5037854;28;20206;-68
2023/01/26 10:48:17;;;;;;;7.70;2.67;;;;;;;1.74;100.00;96474.28;5038049;28;20204;-68
2023/01/26 10:50:44;;;;;;;6.57;3.33;;;;;;;1.72;100.00;96468.34;5037736;28;20706;-68
2023/01/26 10:53:17;;;;;;;9.03;2.83;;;;;;;1.78;100.00;96473.91;5037940;28;20226;-68
2023/01/26 10:55:57;;;;;;;8.57;3.13;;;;;;;1.76;100.00;96478.41;5037525;28;20223;-68
2023/01/26 10:58:50;;;;;;;9.73;3.27;;;;;;;1.88;100.00;96473.09;5038192;28;20225;-68
2023/01/26 11:01:26;;;;;;;7.70;3.37;;;;;;;1.76;100.00;96472.38;5038866;28;20202;-68
2023/01/26 11:04:05;;;;;;;5.43;2.57;;;;;;;1.90;99.32;96479.00;5037178;28;20735;-67
2023/01/26 11:06:33;;;;;;;6.93;3.10;;;;;;;1.87;100.00;96478.38;5038101;28;20263;-67
2023/01/26 11:09:11;;;;;;;5.73;2.37;;;;;;;2.05;99.21;96471.75;5038479;28;20231;-67
2023/01/26 11:11:37;;;;;;;6.47;2.50;;;;;;;1.96;97.96;96475.06;5037461;28;20221;-68
2023/01/26 11:14:12;;;;;;;5.67;2.53;;;;;;;2.14;96.23;96479.69;5036046;28;20241;-68
2023/01/26 11:16:41;;;;;;;8.97;2.93;;;;;;;2.01;97.43;96471.19;5037979;28;20220;-67
2023/01/26 11:19:14;;;;;;;10.20;2.60;;;;;;;2.01;98.46;96470.34;5037606;28;20229;-68
2023/01/26 11:21:44;;;;;;;6.10;2.97;;;;;;;2.01;97.46;96470.34;5037792;28;21062;-67
2023/01/26 11:24:16;;;;;;;5.50;2.70;;;;;;;1.77;99.42;96466.25;5037071;28;20216;-67
2023/01/26 11:27:04;;;;;;;10.13;3.30;;;;;;;1.98;98.92;96468.00;5037324;28;20299;-67
2023/01/26 11:29:52;;;;;;;5.97;2.27;;;;;;;1.90;97.22;96459.97;5037594;28;20600;-67
2023/01/26 11:32:28;;;;;;;5.87;2.10;;;;;;;1.89;97.31;96460.94;5037760;28;20225;-68
2023/01/26 11:35:05;;;;;;;6.87;2.50;;;;;;;1.99;97.83;96467.06;5036050;28;20324;-67
2023/01/26 11:37:39;;;;;;;7.10;2.40;;;;;;;1.97;95.50;96461.16;5036657;28;20211;-68
2023/01/26 11:40:22;;;;;;;7.27;2.83;;;;;;;1.98;96.20;96452.41;5037671;28;20228;-67
2023/01/26 11:43:04;;;;;;;6.90;2.17;;;;;;;1.86;96.23;96461.19;5037245;28;20204;-67
2023/01/26 11:45:37;;;;;;;7.17;2.53;;;;;;;1.89;96.66;96448.75;5036148;28;20626;-68
2023/01/26 11:48:21;;;;;;;6.33;2.43;;;;;;;2.04;98.02;96450.16;5037370;28;20220;-68
2023/01/26 11:50:55;;;;;;;6.20;2.60;;;;;;;2.07;96.83;96451.69;5037188;28;20205;-67
2023/01/26 11:53:43;;;;;;;7.67;2.10;;;;;;;2.18;96.37;96451.69;5037248;28;20223;-67
2023/01/26 11:56:22;;;;;;;8.13;2.60;;;;;;;2.21;96.34;96451.44;5037044;28;20294;-68
2023/01/26 11:58:54;;;;;;;11.27;2.37;;;;;;;2.07;95.90;96444.72;5037189;28;20240;-68
2023/01/26 12:01:27;;;;;;;9.13;3.33;;;;;;;1.93;95.65;96433.75;5037448;28;20209;-67
2023/01/26 12:03:56;;;;;;;7.57;2.87;;;;;;;2.00;95.11;96435.75;5036422;28;20286;-68
2023/01/26 12:06:30;;;;;;;10.27;2.57;;;;;;;1.73;96.36;96428.47;5036610;28;20197;-67
2023/01/26 12:09:02;;;;;;;6.57;2.83;;;;;;;1.73;98.91;96434.47;5037179;28;20232;-68
2023/01/26 12:11:35;;;;;;;6.70;2.67;;;;;;;1.81;97.46;96430.34;5038107;28;20207;-68
2023/01/26 12:14:08;;;;;;;10.07;3.00;;;;;;;1.94;96.47;96428.44;5035128;28;20232;-67
2023/01/26 12:16:49;;;;;;;5.93;2.80;;;;;;;2.08;95.87;96428.16;5035794;28;20210;-67
2023/01/26 12:19:37;;;;;;;7.40;3.23;;;;;;;2.21;95.51;96421.06;5036508;28;20229;-68
2023/01/26 12:22:13;;;;;;;8.30;3.40;;;;;;;1.88;96.28;96425.50;5035885;28;20210;-68
2023/01/26 12:24:44;;;;;;;7.70;3.03;;;;;;;1.38;99.45;96423.38;5035268;28;20211;-67
2023/01/26 12:27:17;;;;;;;9.97;3.40;;;;;;;1.65;99.33;96421.25;5036042;28;20208;-67
2023/01/26 12:29:50;;;;;;;12.03;3.27;;;;;;;1.70;99.60;96424.34;5036109;28;20242;-67